createdAt,value
2023-05-06T00:02:11.703Z,18.35
2023-05-06T00:04:38.378Z,17.90
2023-05-06T00:07:05.094Z,18.75
2023-05-06T00:09:31.637Z,17.98
2023-05-06T00:11:58.234Z,18.35
2023-05-06T00:14:24.818Z,18.67
2023-05-06T00:16:51.444Z,19.45
2023-05-06T00:19:17.995Z,18.77
2023-05-06T00:21:44.599Z,18.65
2023-05-06T00:24:11.422Z,18.90
2023-05-06T00:26:38.036Z,18.40
2023-05-06T00:29:04.641Z,18.90
2023-05-06T00:31:31.260Z,17.20
2023-05-06T00:33:57.862Z,18.45
2023-05-06T00:36:24.435Z,18.52
2023-05-06T00:38:51.456Z,19.25
2023-05-06T00:41:18.089Z,19.40
2023-05-06T00:43:44.659Z,19.25
2023-05-06T00:46:11.703Z,19.27
2023-05-06T00:48:38.611Z,19.20
2023-05-06T00:51:06.127Z,18.98
2023-05-06T00:53:33.351Z,17.77
2023-05-06T00:56:00.327Z,17.73
2023-05-06T00:58:26.917Z,19.65
2023-05-06T01:00:53.899Z,17.92
2023-05-06T01:03:20.988Z,15.60
2023-05-06T01:06:04.233Z,14.88
2023-05-06T01:08:56.371Z,15.68
2023-05-06T01:11:36.459Z,16.07
2023-05-06T01:14:26.960Z,16.55
2023-05-06T01:16:58.152Z,16.92
2023-05-06T01:19:48.893Z,17.58
2023-05-06T01:22:16.365Z,15.80
2023-05-06T01:24:45.603Z,16.05
2023-05-06T01:27:14.046Z,17.75
2023-05-06T01:29:46.560Z,16.33
2023-05-06T01:32:19.302Z,16.73
2023-05-06T01:37:43.189Z,16.73
2023-05-06T01:40:10.109Z,16.38
2023-05-06T01:42:37.789Z,16.20
2023-05-06T01:45:05.967Z,19.35
2023-05-06T01:47:33.384Z,17.27
2023-05-06T01:50:01.610Z,17.30
2023-05-06T01:52:28.203Z,15.77
2023-05-06T01:54:54.707Z,16.38
2023-05-06T01:57:21.351Z,15.95
2023-05-06T01:59:48.191Z,17.90
2023-05-06T02:02:15.032Z,16.20
2023-05-06T02:04:41.695Z,16.60
2023-05-06T02:07:08.495Z,14.95
2023-05-06T02:09:35.064Z,16.95
2023-05-06T02:12:02.946Z,16.35
2023-05-06T02:14:29.512Z,15.93
2023-05-06T02:16:57.764Z,16.42
2023-05-06T02:19:24.365Z,16.63
2023-05-06T02:21:51.023Z,15.25
2023-05-06T02:24:17.593Z,14.73
2023-05-06T02:26:44.281Z,16.13
2023-05-06T02:29:10.923Z,16.42
2023-05-06T02:31:37.599Z,19.30
2023-05-06T02:34:04.960Z,16.17
2023-05-06T02:36:32.342Z,16.98
2023-05-06T02:38:58.920Z,14.65
2023-05-06T02:41:25.617Z,17.58
2023-05-06T02:43:52.225Z,23.05
2023-05-06T02:46:19.145Z,16.35
2023-05-06T02:48:46.350Z,15.95
2023-05-06T02:51:13.974Z,19.40
2023-05-06T02:53:40.622Z,17.55
2023-05-06T02:56:07.476Z,17.67
2023-05-06T02:58:34.009Z,17.35
2023-05-06T03:01:00.728Z,18.42
2023-05-06T03:03:27.931Z,18.65
2023-05-06T03:05:54.421Z,18.50
2023-05-06T03:08:21.040Z,18.95
2023-05-06T03:10:47.883Z,18.05
2023-05-06T03:13:17.330Z,18.20
2023-05-06T03:15:44.438Z,19.05
2023-05-06T03:18:11.443Z,19.23
2023-05-06T03:20:39.296Z,18.63
2023-05-06T03:23:05.915Z,18.45
2023-05-06T03:25:32.492Z,19.02
2023-05-06T03:27:59.206Z,18.33
2023-05-06T03:30:27.585Z,18.67
2023-05-06T03:33:00.480Z,18.13
2023-05-06T03:35:30.814Z,15.85
2023-05-06T03:37:59.460Z,18.58
2023-05-06T03:40:31.971Z,16.52
2023-05-06T03:42:58.983Z,17.65
2023-05-06T03:45:26.980Z,20.02
2023-05-06T03:47:54.561Z,18.75
2023-05-06T03:50:22.998Z,19.77
2023-05-06T03:52:51.673Z,19.13
2023-05-06T03:55:19.363Z,20.98
2023-05-06T03:57:46.448Z,17.80
2023-05-06T04:00:14.210Z,19.63
2023-05-06T04:02:43.717Z,18.50
2023-05-06T04:05:17.733Z,19.38
2023-05-06T04:07:45.349Z,20.58
2023-05-06T04:10:11.968Z,19.73
2023-05-06T04:12:40.456Z,19.08
2023-05-06T04:15:08.076Z,19.88
2023-05-06T04:17:34.994Z,17.85
2023-05-06T04:20:11.465Z,18.13
2023-05-06T04:22:39.174Z,17.75
2023-05-06T04:25:06.968Z,17.38
2023-05-06T04:27:35.437Z,17.88
2023-05-06T04:30:04.022Z,16.95
2023-05-06T04:32:34.077Z,15.65
2023-05-06T04:35:04.352Z,18.63
2023-05-06T04:37:30.998Z,17.15
2023-05-06T04:40:16.168Z,17.60
2023-05-06T04:42:44.818Z,17.98
2023-05-06T04:45:17.912Z,18.00
2023-05-06T04:47:48.067Z,19.52
2023-05-06T04:50:16.371Z,20.60
2023-05-06T04:52:42.940Z,18.15
2023-05-06T04:55:11.193Z,17.65
2023-05-06T04:57:41.304Z,18.33
2023-05-06T05:00:10.361Z,18.73
2023-05-06T05:02:37.421Z,17.42
2023-05-06T05:05:05.298Z,19.50
2023-05-06T05:07:32.215Z,19.38
2023-05-06T05:09:59.434Z,18.15
2023-05-06T05:12:26.125Z,18.23
2023-05-06T05:14:53.196Z,21.48
2023-05-06T05:17:19.987Z,18.27
2023-05-06T05:19:48.569Z,18.60
2023-05-06T05:22:17.482Z,17.77
2023-05-06T05:24:44.322Z,19.30
2023-05-06T05:27:11.384Z,19.42
2023-05-06T05:29:39.148Z,19.55
2023-05-06T05:32:07.687Z,17.55
2023-05-06T05:34:35.086Z,19.33
2023-05-06T05:37:02.061Z,18.45
2023-05-06T05:39:29.774Z,18.95
2023-05-06T05:41:56.357Z,18.80
2023-05-06T05:44:23.506Z,18.52
2023-05-06T05:46:50.808Z,18.40
2023-05-06T05:49:19.572Z,18.48
2023-05-06T05:51:48.238Z,17.80
2023-05-06T05:54:17.428Z,18.42
2023-05-06T05:56:45.161Z,17.30
2023-05-06T05:59:11.740Z,17.20
2023-05-06T06:01:38.540Z,15.98
2023-05-06T06:04:06.565Z,15.30
2023-05-06T06:06:33.288Z,13.93
2023-05-06T06:09:00.134Z,14.45
2023-05-06T06:11:28.512Z,14.40
2023-05-06T06:13:55.187Z,12.98
2023-05-06T06:16:22.426Z,14.05
2023-05-06T06:18:49.021Z,13.82
2023-05-06T06:21:15.539Z,13.05
2023-05-06T06:23:42.263Z,13.13
2023-05-06T06:26:10.463Z,13.75
2023-05-06T06:28:39.373Z,13.27
2023-05-06T06:31:05.904Z,13.65
2023-05-06T06:33:32.914Z,12.35
2023-05-06T06:35:59.629Z,13.63
2023-05-06T06:38:26.145Z,12.15
2023-05-06T06:40:52.673Z,13.30
2023-05-06T06:43:19.951Z,13.25
2023-05-06T06:46:06.785Z,12.57
2023-05-06T06:48:33.353Z,12.13
2023-05-06T06:50:59.927Z,12.60
2023-05-06T06:53:26.763Z,9.93
2023-05-06T06:55:53.345Z,10.80
2023-05-06T06:58:19.901Z,11.73
2023-05-06T07:00:46.482Z,11.35
2023-05-06T07:03:15.805Z,10.10
2023-05-06T07:05:42.308Z,10.95
2023-05-06T07:08:08.832Z,10.02
2023-05-06T07:10:35.852Z,10.00
2023-05-06T07:13:02.445Z,10.13
2023-05-06T07:15:29.001Z,9.90
2023-05-06T07:17:55.666Z,9.52
2023-05-06T07:20:22.300Z,10.00
2023-05-06T07:22:48.838Z,10.50
2023-05-06T07:25:15.471Z,10.05
2023-05-06T07:27:42.011Z,9.95
2023-05-06T07:30:08.818Z,10.30
2023-05-06T07:32:35.887Z,9.80
2023-05-06T07:35:03.379Z,10.52
2023-05-06T07:37:29.936Z,10.93
2023-05-06T07:39:57.498Z,10.18
2023-05-06T07:42:24.174Z,10.23
2023-05-06T07:44:50.805Z,9.88
2023-05-06T07:47:27.007Z,11.38
2023-05-06T07:49:54.446Z,10.52
2023-05-06T07:52:21.182Z,9.95
2023-05-06T07:54:47.762Z,11.20
2023-05-06T07:57:14.650Z,10.68
2023-05-06T07:59:42.495Z,10.85
2023-05-06T08:02:09.200Z,9.95
2023-05-06T08:04:36.161Z,10.10
2023-05-06T08:07:02.822Z,10.50
2023-05-06T08:09:29.424Z,11.80
2023-05-06T08:11:56.237Z,10.70
2023-05-06T08:14:22.924Z,9.50
2023-05-06T08:16:50.249Z,10.75
2023-05-06T08:19:17.928Z,9.43
2023-05-06T08:21:44.501Z,10.07
2023-05-06T08:24:11.097Z,10.05
2023-05-06T08:26:37.703Z,9.05
2023-05-06T08:29:04.275Z,10.55
2023-05-06T08:31:30.908Z,10.15
2023-05-06T08:33:57.525Z,10.60
2023-05-06T08:36:24.281Z,10.85
2023-05-06T08:38:51.234Z,8.32
2023-05-06T08:41:21.486Z,8.00
2023-05-06T08:43:49.691Z,8.38
2023-05-06T08:46:17.792Z,7.93
2023-05-06T08:48:45.444Z,7.07
2023-05-06T08:51:15.147Z,8.68
2023-05-06T08:53:48.495Z,7.43
2023-05-06T08:56:16.478Z,6.82
2023-05-06T08:58:46.180Z,7.60
2023-05-06T09:01:14.773Z,7.30
2023-05-06T09:03:41.387Z,7.10
2023-05-06T09:06:08.099Z,7.20
2023-05-06T09:08:34.730Z,6.32
2023-05-06T09:11:01.295Z,7.13
2023-05-06T09:13:27.872Z,7.95
2023-05-06T09:15:55.236Z,7.20
2023-05-06T09:18:22.564Z,6.32
2023-05-06T09:20:49.578Z,5.80
2023-05-06T09:23:17.505Z,5.05
2023-05-06T09:25:46.291Z,5.68
2023-05-06T09:28:14.018Z,5.43
2023-05-06T09:30:44.851Z,6.75
2023-05-06T09:33:12.093Z,5.55
2023-05-06T09:35:39.840Z,5.95
2023-05-06T09:38:07.515Z,6.25
2023-05-06T09:40:37.962Z,6.20
2023-05-06T09:43:04.977Z,5.50
2023-05-06T09:45:31.570Z,5.38
2023-05-06T09:47:58.927Z,5.60
2023-05-06T09:50:26.402Z,6.28
2023-05-06T09:52:54.706Z,4.95
2023-05-06T09:55:22.647Z,5.30
2023-05-06T09:57:50.080Z,5.50
2023-05-06T10:00:17.217Z,5.63
2023-05-06T10:02:45.806Z,6.80
2023-05-06T10:05:13.445Z,5.28
2023-05-06T10:07:42.110Z,5.25
2023-05-06T10:10:10.939Z,5.80
2023-05-06T10:12:38.100Z,5.53
2023-05-06T10:15:05.487Z,5.10
2023-05-06T10:17:32.923Z,5.22
2023-05-06T10:20:01.071Z,5.32
2023-05-06T10:22:59.450Z,5.30
2023-05-06T10:25:29.057Z,4.75
2023-05-06T10:27:55.736Z,4.63
2023-05-06T10:30:23.855Z,4.15
2023-05-06T10:32:52.400Z,3.92
2023-05-06T10:35:41.665Z,3.55
2023-05-06T10:38:13.163Z,3.92
2023-05-06T10:40:40.439Z,3.80
2023-05-06T10:43:29.057Z,5.00
2023-05-06T10:46:17.099Z,5.32
2023-05-06T10:49:10.828Z,4.50
2023-05-06T10:51:41.933Z,4.18
2023-05-06T10:54:18.383Z,4.70
2023-05-06T10:56:48.004Z,4.75
2023-05-06T10:59:14.637Z,4.47
2023-05-06T11:01:43.435Z,3.95
2023-05-06T11:04:12.766Z,4.97
2023-05-06T11:06:44.604Z,4.60
2023-05-06T11:09:21.548Z,4.38
2023-05-06T11:11:52.267Z,4.82
2023-05-06T11:14:36.001Z,4.00
2023-05-06T11:17:04.957Z,4.45
2023-05-06T11:19:33.577Z,4.07
2023-05-06T11:22:01.818Z,3.85
2023-05-06T11:24:30.589Z,3.60
2023-05-06T11:26:59.294Z,4.30
2023-05-06T11:29:26.785Z,4.55
2023-05-06T11:31:54.156Z,3.95
2023-05-06T11:34:23.309Z,3.90
2023-05-06T11:36:53.023Z,3.95
2023-05-06T11:39:19.848Z,4.25
2023-05-06T11:41:46.472Z,4.00
2023-05-06T11:44:24.495Z,4.28
2023-05-06T11:46:51.333Z,3.40
2023-05-06T11:49:17.926Z,3.70
2023-05-06T11:51:44.427Z,3.50
2023-05-06T11:54:11.201Z,3.85
2023-05-06T11:56:54.224Z,2.97
2023-05-06T11:59:29.325Z,3.47
2023-05-06T12:02:01.324Z,2.72
2023-05-06T12:04:38.631Z,3.00
2023-05-06T12:07:06.319Z,3.45
2023-05-06T12:09:34.329Z,3.60
2023-05-06T12:12:02.947Z,3.25
2023-05-06T12:14:29.714Z,3.40
2023-05-06T12:16:56.737Z,3.13
2023-05-06T12:19:24.157Z,3.08
2023-05-06T12:21:50.703Z,3.10
2023-05-06T12:24:26.912Z,2.88
2023-05-06T12:26:53.463Z,2.72
2023-05-06T12:29:20.001Z,2.30
2023-05-06T12:31:47.531Z,3.00
2023-05-06T12:34:16.180Z,3.05
2023-05-06T12:36:44.710Z,3.20
2023-05-06T12:39:12.271Z,3.00
2023-05-06T12:41:45.628Z,2.92
2023-05-06T12:44:40.181Z,2.60
2023-05-06T12:47:20.527Z,2.47
2023-05-06T12:49:52.334Z,2.70
2023-05-06T12:52:21.042Z,2.20
2023-05-06T12:54:48.512Z,2.10
2023-05-06T12:57:15.913Z,2.08
2023-05-06T12:59:44.689Z,1.85
2023-05-06T13:02:11.728Z,1.85
2023-05-06T13:04:38.648Z,2.05
2023-05-06T13:07:05.473Z,2.80
2023-05-06T13:09:32.187Z,5.80
2023-05-06T13:11:59.350Z,5.10
2023-05-06T13:14:26.419Z,3.33
2023-05-06T13:16:53.259Z,1.92
2023-05-06T13:19:31.574Z,1.95
2023-05-06T13:22:00.257Z,1.70
2023-05-06T13:24:26.840Z,2.45
2023-05-06T13:26:53.342Z,2.17
2023-05-06T13:29:19.977Z,1.45
2023-05-06T13:31:46.588Z,2.45
2023-05-06T13:34:13.128Z,1.70
2023-05-06T13:36:39.743Z,1.80
2023-05-06T13:39:06.307Z,1.65
2023-05-06T13:41:32.982Z,1.80
2023-05-06T13:43:59.542Z,1.90
2023-05-06T13:46:27.243Z,1.98
2023-05-06T13:48:54.008Z,1.60
2023-05-06T13:51:20.681Z,1.58
2023-05-06T13:53:47.234Z,1.73
2023-05-06T13:56:13.876Z,2.10
2023-05-06T13:58:40.696Z,1.58
2023-05-06T14:01:07.244Z,1.40
2023-05-06T14:03:33.851Z,1.33
2023-05-06T14:06:01.220Z,1.40
2023-05-06T14:08:27.801Z,1.38
2023-05-06T14:10:54.570Z,1.40
2023-05-06T14:13:21.263Z,1.40
2023-05-06T14:15:47.930Z,1.38
2023-05-06T14:18:14.586Z,1.73
2023-05-06T14:20:41.420Z,1.50
2023-05-06T14:23:08.469Z,1.45
2023-05-06T14:25:34.999Z,1.60
2023-05-06T14:28:01.541Z,1.23
2023-05-06T14:30:28.195Z,1.45
2023-05-06T14:32:54.832Z,1.48
2023-05-06T14:35:21.719Z,1.40
2023-05-06T14:37:48.352Z,1.60
2023-05-06T14:40:15.611Z,1.80
2023-05-06T14:42:42.170Z,1.60
2023-05-06T14:45:09.534Z,1.58
2023-05-06T14:47:36.191Z,1.40
2023-05-06T14:50:02.874Z,1.50
2023-05-06T14:52:29.360Z,1.60
2023-05-06T14:54:55.909Z,1.50
2023-05-06T14:57:22.499Z,1.45
2023-05-06T14:59:50.332Z,1.40
2023-05-06T15:02:17.148Z,1.83
2023-05-06T15:04:43.698Z,1.90
2023-05-06T15:07:10.749Z,2.08
2023-05-06T15:09:39.546Z,2.03
2023-05-06T15:12:06.700Z,1.30
2023-05-06T15:14:33.298Z,2.10
2023-05-06T15:16:59.939Z,1.15
2023-05-06T15:19:26.654Z,1.65
2023-05-06T15:21:53.173Z,1.30
2023-05-06T15:24:19.733Z,1.42
2023-05-06T15:26:46.364Z,1.83
2023-05-06T15:29:13.011Z,1.33
2023-05-06T15:31:40.803Z,1.25
2023-05-06T15:34:09.880Z,1.38
2023-05-06T15:36:36.796Z,1.88
2023-05-06T15:39:03.435Z,1.70
2023-05-06T15:41:34.551Z,1.30
2023-05-06T15:44:03.728Z,1.38
2023-05-06T15:46:31.374Z,1.30
2023-05-06T15:49:22.403Z,1.80
2023-05-06T15:51:44.963Z,1.77
2023-05-06T15:54:11.580Z,1.80
2023-05-06T15:56:41.033Z,1.50
2023-05-06T15:59:08.589Z,1.30
2023-05-06T16:01:53.995Z,1.38
2023-05-06T16:04:22.315Z,1.95
2023-05-06T16:06:49.478Z,1.38
2023-05-06T16:09:16.094Z,1.20
2023-05-06T16:11:42.651Z,1.25
2023-05-06T16:14:09.158Z,1.23
2023-05-06T16:16:35.974Z,1.67
2023-05-06T16:19:04.395Z,1.42
2023-05-06T16:21:31.702Z,1.50
2023-05-06T16:23:58.265Z,1.40
2023-05-06T16:26:24.824Z,1.30
2023-05-06T16:28:51.525Z,1.15
2023-05-06T16:31:18.072Z,1.90
2023-05-06T16:33:44.883Z,1.80
2023-05-06T16:36:12.490Z,1.40
2023-05-06T16:38:39.000Z,1.58
2023-05-06T16:41:05.576Z,2.53
2023-05-06T16:43:32.138Z,2.17
2023-05-06T16:45:58.645Z,2.28
2023-05-06T16:48:25.356Z,1.98
2023-05-06T16:50:51.994Z,1.75
2023-05-06T16:53:18.587Z,1.60
2023-05-06T16:55:48.896Z,1.73
2023-05-06T16:58:15.993Z,2.38
2023-05-06T17:00:42.869Z,1.83
2023-05-06T17:03:09.884Z,1.67
2023-05-06T17:05:36.637Z,1.98
2023-05-06T17:08:03.957Z,2.30
2023-05-06T17:10:30.673Z,2.53
2023-05-06T17:12:58.273Z,2.25
2023-05-06T17:15:25.694Z,2.40
2023-05-06T17:17:52.806Z,2.55
2023-05-06T17:20:22.907Z,2.08
2023-05-06T17:22:49.806Z,2.40
2023-05-06T17:25:16.458Z,2.25
2023-05-06T17:27:43.164Z,2.67
2023-05-06T17:30:10.131Z,2.58
2023-05-06T17:32:37.736Z,2.33
2023-05-06T17:35:04.650Z,2.30
2023-05-06T17:37:31.589Z,2.17
2023-05-06T17:39:58.145Z,2.55
2023-05-06T17:42:25.165Z,3.22
2023-05-06T17:44:51.661Z,2.20
2023-05-06T17:47:20.917Z,2.67
2023-05-06T17:49:47.457Z,2.60
2023-05-06T17:52:13.978Z,2.55
2023-05-06T17:54:40.517Z,2.42
2023-05-06T17:57:07.055Z,2.97
2023-05-06T17:59:33.601Z,2.95
2023-05-06T18:02:00.798Z,2.72
2023-05-06T18:04:27.434Z,3.00
2023-05-06T18:06:54.026Z,2.70
2023-05-06T18:09:20.679Z,2.30
2023-05-06T18:11:47.213Z,2.63
2023-05-06T18:14:13.889Z,2.50
2023-05-06T18:16:40.434Z,2.30
2023-05-06T18:19:07.009Z,2.63
2023-05-06T18:21:35.035Z,2.80
2023-05-06T18:24:14.801Z,2.33
2023-05-06T18:26:44.786Z,2.85
2023-05-06T18:29:12.279Z,3.10
2023-05-06T18:31:38.839Z,2.65
2023-05-06T18:34:05.446Z,2.70
2023-05-06T18:36:32.628Z,2.13
2023-05-06T18:38:59.228Z,2.47
2023-05-06T18:41:26.087Z,2.50
2023-05-06T18:43:52.686Z,3.03
2023-05-06T18:46:19.332Z,2.53
2023-05-06T18:48:46.009Z,2.92
2023-05-06T18:51:14.732Z,2.65
2023-05-06T18:53:41.871Z,2.83
2023-05-06T18:56:08.736Z,3.58
2023-05-06T18:58:39.845Z,4.40
2023-05-06T19:01:08.034Z,3.72
2023-05-06T19:03:35.571Z,3.63
2023-05-06T19:06:04.289Z,4.22
2023-05-06T19:08:32.201Z,3.65
2023-05-06T19:10:59.885Z,3.80
2023-05-06T19:13:26.920Z,4.05
2023-05-06T19:15:53.981Z,3.65
2023-05-06T19:18:20.696Z,2.70
2023-05-06T19:20:47.208Z,3.42
2023-05-06T19:23:13.905Z,3.30
2023-05-06T19:25:40.468Z,3.40
2023-05-06T19:28:07.290Z,3.20
2023-05-06T19:30:34.968Z,3.40
2023-05-06T19:33:02.278Z,3.33
2023-05-06T19:35:29.029Z,3.50
2023-05-06T19:37:56.135Z,3.33
2023-05-06T19:40:22.786Z,3.28
2023-05-06T19:42:49.391Z,3.42
2023-05-06T19:45:18.144Z,3.45
2023-05-06T19:47:45.753Z,3.92
2023-05-06T19:50:12.909Z,4.00
2023-05-06T19:52:39.941Z,3.92
2023-05-06T19:55:07.191Z,4.13
2023-05-06T19:57:34.004Z,4.03
2023-05-06T20:00:05.291Z,4.53
2023-05-06T20:02:32.872Z,3.80
2023-05-06T20:05:00.614Z,4.55
2023-05-06T20:07:27.493Z,4.50
2023-05-06T20:09:55.931Z,5.22
2023-05-06T20:12:26.499Z,4.90
2023-05-06T20:14:56.578Z,4.38
2023-05-06T20:17:23.697Z,4.40
2023-05-06T20:19:50.462Z,4.10
2023-05-06T20:22:17.033Z,5.40
2023-05-06T20:24:44.465Z,4.88
2023-05-06T20:27:11.189Z,4.22
2023-05-06T20:29:37.780Z,4.53
2023-05-06T20:32:04.674Z,4.30
2023-05-06T20:34:31.365Z,4.43
2023-05-06T20:36:58.116Z,4.15
2023-05-06T20:39:24.790Z,4.03
2023-05-06T20:41:51.365Z,4.00
2023-05-06T20:44:17.907Z,4.00
2023-05-06T20:46:44.451Z,4.00
2023-05-06T20:49:11.763Z,3.85
2023-05-06T20:51:38.314Z,3.75
2023-05-06T20:54:04.965Z,4.32
2023-05-06T20:56:31.590Z,3.97
2023-05-06T20:58:58.095Z,3.72
2023-05-06T21:01:25.653Z,3.55
2023-05-06T21:03:52.499Z,3.90
2023-05-06T21:06:19.349Z,3.40
2023-05-06T21:08:46.915Z,3.65
2023-05-06T21:11:13.896Z,3.88
2023-05-06T21:13:40.855Z,3.65
2023-05-06T21:16:07.945Z,3.28
2023-05-06T21:18:34.673Z,3.90
2023-05-06T21:21:01.368Z,3.53
2023-05-06T21:23:27.924Z,3.83
2023-05-06T21:25:54.496Z,3.05
2023-05-06T21:28:21.105Z,4.00
2023-05-06T21:30:47.664Z,3.50
2023-05-06T21:33:14.222Z,3.65
2023-05-06T21:35:40.887Z,3.88
2023-05-06T21:38:07.660Z,4.03
2023-05-06T21:40:36.820Z,4.55
2023-05-06T21:43:03.354Z,3.63
2023-05-06T21:45:29.967Z,3.33
2023-05-06T21:47:56.693Z,3.53
2023-05-06T21:50:23.233Z,4.65
2023-05-06T21:52:49.756Z,4.22
2023-05-06T21:55:16.268Z,4.57
2023-05-06T21:57:44.528Z,4.88
2023-05-06T22:00:12.502Z,4.10
2023-05-06T22:02:40.069Z,4.75
2023-05-06T22:05:08.125Z,4.50
2023-05-06T22:07:35.781Z,4.88
2023-05-06T22:10:02.966Z,3.63
2023-05-06T22:12:30.102Z,4.00
2023-05-06T22:14:56.819Z,3.15
2023-05-06T22:17:24.440Z,4.15
2023-05-06T22:19:51.847Z,3.28
2023-05-06T22:22:19.070Z,3.47
2023-05-06T22:24:45.802Z,3.03
2023-05-06T22:27:12.311Z,3.15
2023-05-06T22:29:39.145Z,3.10
2023-05-06T22:32:06.321Z,3.22
2023-05-06T22:34:32.970Z,3.58
2023-05-06T22:37:01.015Z,3.47
2023-05-06T22:39:27.837Z,3.72
2023-05-06T22:41:54.436Z,3.20
2023-05-06T22:44:21.253Z,3.60
2023-05-06T22:46:47.855Z,3.50
2023-05-06T22:49:15.914Z,3.10
2023-05-06T22:51:42.611Z,3.60
2023-05-06T22:54:09.167Z,3.42
2023-05-06T22:56:36.096Z,3.78
2023-05-06T22:59:02.842Z,3.15
2023-05-06T23:01:32.635Z,3.30
2023-05-06T23:03:59.664Z,3.30
2023-05-06T23:06:30.737Z,2.95
2023-05-06T23:08:57.318Z,3.17
2023-05-06T23:11:23.858Z,3.42
2023-05-06T23:13:50.591Z,3.83
2023-05-06T23:16:17.258Z,3.65
2023-05-06T23:18:43.804Z,2.92
2023-05-06T23:21:12.412Z,3.95
2023-05-06T23:23:38.957Z,3.83
2023-05-06T23:26:05.570Z,3.05
2023-05-06T23:28:32.089Z,3.60
2023-05-06T23:30:58.807Z,3.47
2023-05-06T23:33:25.379Z,3.35
2023-05-06T23:35:51.975Z,3.67
2023-05-06T23:38:18.472Z,3.50
2023-05-06T23:40:45.032Z,3.65
2023-05-06T23:43:11.634Z,3.70
2023-05-06T23:45:38.374Z,4.30
2023-05-06T23:48:05.552Z,4.57
2023-05-06T23:50:32.098Z,4.43
2023-05-06T23:52:58.911Z,4.97
2023-05-06T23:55:28.251Z,4.45
2023-05-06T23:57:55.405Z,4.75
